Accueil
METAR-TAF:

METAR-TAF

Aéroports :

Aéroport de Sarrebruck

Sarrebruck, Allemagne

latitude: 49-13N, longitude: 007-07E, altitude: 322 m

Observation

Le bulletin a été fait il y a 20 minutes, à 06:20 UTC
Vent 8 kt de nord-est
Température -2°C
Humidité 74%
Pression 1020 hPa
Visibilité 10 km ou plus
pas de nuages en-dessous de 1500 mètres et pas de cumulonimbus.

METAR: EDDR 080620Z 05008KT CAVOK M02/M06 Q1020 NOSIG

Heure: 07:40 (06:40 UTC)

Prévision

Le bulletin a été fait il y a 1 heure et 40 minutes, à 05:00 UTC
Prévision valable du 08 à 06 UTC au 09 à 06 UTC
Vent 6 kt de nord-est
Visibilité 10 km ou plus
pas de nuages en-dessous de 1500 mètres et pas de cumulonimbus.

TAF: EDDR 080500Z 0806/0906 05006KT CAVOK

Observations et prévisions météorologiques de plus de 4000 aéroports (messages METAR et TAF).

Les stations disponibles sont représentées par des disques jaunes et rouges sur la carte.

Passer la souris dessus pour voir le nom de la station.

Cliquer dessus pour voir les observations et prévisions météorologiques.

Pour changer de carte: cliquez sur les boutons verts avec une croix noire pour zoomer, sur le bouton vert avec un tiret pour effectuer un zoom arrière, ou sur les flèches vertes pour les cartes adjacentes.


METAR-TAF: